sensor_id;sensor_type;location;lat;lon;timestamp;pressure;altitude;pressure_sealevel;temperature;humidity
75681;BME280;64294;49.176;16.626;2022-10-16T00:01:12;99544.53;;;12.41;90.65
75681;BME280;64294;49.176;16.626;2022-10-16T00:03:39;99541.19;;;12.42;90.69
75681;BME280;64294;49.176;16.626;2022-10-16T00:06:05;99550.94;;;12.41;90.29
75681;BME280;64294;49.176;16.626;2022-10-16T00:08:31;99547.25;;;12.47;89.79
75681;BME280;64294;49.176;16.626;2022-10-16T00:11:05;99552.44;;;12.42;90.23
75681;BME280;64294;49.176;16.626;2022-10-16T00:13:32;99559.28;;;12.47;89.99
75681;BME280;64294;49.176;16.626;2022-10-16T00:15:59;99545.41;;;12.49;90.25
75681;BME280;64294;49.176;16.626;2022-10-16T00:18:25;99548.66;;;12.53;89.89
75681;BME280;64294;49.176;16.626;2022-10-16T00:20:50;99556.25;;;12.45;89.57
75681;BME280;64294;49.176;16.626;2022-10-16T00:23:19;99555.38;;;12.50;89.76
75681;BME280;64294;49.176;16.626;2022-10-16T00:25:45;99547.69;;;12.51;89.06
75681;BME280;64294;49.176;16.626;2022-10-16T00:28:10;99549.19;;;12.52;89.65
75681;BME280;64294;49.176;16.626;2022-10-16T00:30:39;99544.84;;;12.51;89.40
75681;BME280;64294;49.176;16.626;2022-10-16T00:33:04;99545.28;;;12.55;89.59
75681;BME280;64294;49.176;16.626;2022-10-16T00:35:30;99542.81;;;12.51;89.13
75681;BME280;64294;49.176;16.626;2022-10-16T00:37:56;99542.47;;;12.55;89.49
75681;BME280;64294;49.176;16.626;2022-10-16T00:40:21;99546.38;;;12.52;89.23
75681;BME280;64294;49.176;16.626;2022-10-16T00:42:46;99547.88;;;12.53;89.38
75681;BME280;64294;49.176;16.626;2022-10-16T00:45:12;99559.16;;;12.53;89.82
75681;BME280;64294;49.176;16.626;2022-10-16T00:47:41;99558.53;;;12.47;89.93
75681;BME280;64294;49.176;16.626;2022-10-16T00:50:24;99557.22;;;12.48;89.54
75681;BME280;64294;49.176;16.626;2022-10-16T00:52:51;99558.19;;;12.50;89.63
75681;BME280;64294;49.176;16.626;2022-10-16T00:55:18;99560.69;;;12.54;89.12
75681;BME280;64294;49.176;16.626;2022-10-16T00:57:46;99558.28;;;12.58;88.79
75681;BME280;64294;49.176;16.626;2022-10-16T01:00:15;99556.75;;;12.57;88.99
75681;BME280;64294;49.176;16.626;2022-10-16T01:02:41;99576.28;;;12.55;88.96
75681;BME280;64294;49.176;16.626;2022-10-16T01:05:07;99574.09;;;12.61;88.39
75681;BME280;64294;49.176;16.626;2022-10-16T01:10:20;99567.28;;;12.56;88.54
75681;BME280;64294;49.176;16.626;2022-10-16T01:13:01;99569.91;;;12.54;88.79
75681;BME280;64294;49.176;16.626;2022-10-16T01:15:35;99564.59;;;12.51;88.83
75681;BME280;64294;49.176;16.626;2022-10-16T01:18:13;99557.88;;;12.54;89.12
75681;BME280;64294;49.176;16.626;2022-10-16T01:20:49;99565.69;;;12.48;89.25
75681;BME280;64294;49.176;16.626;2022-10-16T01:28:57;99546.38;;;12.52;88.49
75681;BME280;64294;49.176;16.626;2022-10-16T01:31:27;99543.28;;;12.63;87.95
75681;BME280;64294;49.176;16.626;2022-10-16T01:34:15;99545.50;;;12.57;88.04
75681;BME280;64294;49.176;16.626;2022-10-16T01:36:51;99548.50;;;12.59;88.13
75681;BME280;64294;49.176;16.626;2022-10-16T01:39:21;99544.41;;;12.60;88.44
75681;BME280;64294;49.176;16.626;2022-10-16T01:41:50;99557.53;;;12.57;88.21
75681;BME280;64294;49.176;16.626;2022-10-16T01:44:22;99561.13;;;12.44;88.77
75681;BME280;64294;49.176;16.626;2022-10-16T01:46:52;99562.63;;;12.46;88.76
75681;BME280;64294;49.176;16.626;2022-10-16T01:49:20;99569.81;;;12.47;88.94
75681;BME280;64294;49.176;16.626;2022-10-16T01:51:49;99562.22;;;12.41;88.74
75681;BME280;64294;49.176;16.626;2022-10-16T01:54:17;99560.28;;;12.36;89.04
75681;BME280;64294;49.176;16.626;2022-10-16T01:56:45;99560.28;;;12.36;89.25
75681;BME280;64294;49.176;16.626;2022-10-16T01:59:13;99564.28;;;12.41;88.75
75681;BME280;64294;49.176;16.626;2022-10-16T02:01:43;99562.13;;;12.34;89.10
75681;BME280;64294;49.176;16.626;2022-10-16T02:04:33;99564.72;;;12.32;89.43
75681;BME280;64294;49.176;16.626;2022-10-16T02:07:00;99556.81;;;12.30;89.42
75681;BME280;64294;49.176;16.626;2022-10-16T02:09:26;99561.38;;;12.33;89.29
75681;BME280;64294;49.176;16.626;2022-10-16T02:11:53;99560.94;;;12.29;89.70
75681;BME280;64294;49.176;16.626;2022-10-16T02:14:23;99557.91;;;12.27;89.72
75681;BME280;64294;49.176;16.626;2022-10-16T02:16:50;99531.69;;;12.19;90.01
75681;BME280;64294;49.176;16.626;2022-10-16T02:19:17;99530.50;;;12.15;90.14
75681;BME280;64294;49.176;16.626;2022-10-16T02:21:54;99541.97;;;12.03;90.51
75681;BME280;64294;49.176;16.626;2022-10-16T02:27:06;99545.97;;;12.08;90.24
75681;BME280;64294;49.176;16.626;2022-10-16T02:29:39;99561.06;;;12.10;89.92
75681;BME280;64294;49.176;16.626;2022-10-16T02:32:07;99558.78;;;12.09;89.93
75681;BME280;64294;49.176;16.626;2022-10-16T02:34:34;99559.84;;;12.06;90.23
75681;BME280;64294;49.176;16.626;2022-10-16T02:37:01;99565.50;;;12.06;90.21
75681;BME280;64294;49.176;16.626;2022-10-16T02:39:29;99575.91;;;11.98;90.45
75681;BME280;64294;49.176;16.626;2022-10-16T02:41:55;99582.28;;;11.98;90.36
75681;BME280;64294;49.176;16.626;2022-10-16T02:44:21;99584.56;;;12.00;90.59
75681;BME280;64294;49.176;16.626;2022-10-16T02:46:46;99595.84;;;12.00;90.94
75681;BME280;64294;49.176;16.626;2022-10-16T02:49:11;99587.59;;;12.02;90.93
75681;BME280;64294;49.176;16.626;2022-10-16T02:51:37;99597.78;;;12.05;90.88
75681;BME280;64294;49.176;16.626;2022-10-16T02:54:02;99602.09;;;12.06;90.69
75681;BME280;64294;49.176;16.626;2022-10-16T02:56:28;99606.69;;;12.09;91.15
75681;BME280;64294;49.176;16.626;2022-10-16T02:58:54;99611.78;;;12.10;91.37
75681;BME280;64294;49.176;16.626;2022-10-16T03:01:20;99612.97;;;12.15;90.96
75681;BME280;64294;49.176;16.626;2022-10-16T03:03:45;99609.94;;;12.13;91.00
75681;BME280;64294;49.176;16.626;2022-10-16T03:06:10;99619.34;;;12.16;90.99
75681;BME280;64294;49.176;16.626;2022-10-16T03:08:36;99609.28;;;12.20;90.80
75681;BME280;64294;49.176;16.626;2022-10-16T03:11:01;99601.91;;;12.17;91.06
75681;BME280;64294;49.176;16.626;2022-10-16T03:13:26;99593.47;;;12.17;91.24
75681;BME280;64294;49.176;16.626;2022-10-16T03:15:52;99598.66;;;12.13;91.17
75681;BME280;64294;49.176;16.626;2022-10-16T03:18:17;99606.03;;;12.16;91.47
75681;BME280;64294;49.176;16.626;2022-10-16T03:20:43;99598.88;;;12.15;91.53
75681;BME280;64294;49.176;16.626;2022-10-16T03:23:08;99584.38;;;12.11;91.25
75681;BME280;64294;49.176;16.626;2022-10-16T03:25:34;99582.59;;;12.08;91.33
75681;BME280;64294;49.176;16.626;2022-10-16T03:27:59;99585.41;;;12.08;91.29
75681;BME280;64294;49.176;16.626;2022-10-16T03:30:24;99575.91;;;11.98;91.58
75681;BME280;64294;49.176;16.626;2022-10-16T03:32:50;99578.91;;;11.87;91.59
75681;BME280;64294;49.176;16.626;2022-10-16T03:35:22;99573.69;;;11.77;91.75
75681;BME280;64294;49.176;16.626;2022-10-16T03:37:48;99586.13;;;11.69;91.92
75681;BME280;64294;49.176;16.626;2022-10-16T03:40:13;99598.66;;;11.55;92.17
75681;BME280;64294;49.176;16.626;2022-10-16T03:42:39;99602.84;;;11.48;92.65
75681;BME280;64294;49.176;16.626;2022-10-16T03:45:05;99606.53;;;11.43;92.84
75681;BME280;64294;49.176;16.626;2022-10-16T03:47:30;99598.75;;;11.49;92.41
75681;BME280;64294;49.176;16.626;2022-10-16T03:49:58;99599.88;;;11.59;91.94
75681;BME280;64294;49.176;16.626;2022-10-16T03:52:23;99605.72;;;11.61;91.51
75681;BME280;64294;49.176;16.626;2022-10-16T03:54:49;99602.03;;;11.66;92.07
75681;BME280;64294;49.176;16.626;2022-10-16T03:57:14;99624.09;;;11.81;91.49
75681;BME280;64294;49.176;16.626;2022-10-16T03:59:39;99619.00;;;11.79;90.83
75681;BME280;64294;49.176;16.626;2022-10-16T04:02:04;99626.34;;;11.82;90.33
75681;BME280;64294;49.176;16.626;2022-10-16T04:04:30;99629.81;;;11.89;90.03
75681;BME280;64294;49.176;16.626;2022-10-16T04:06:55;99636.75;;;11.88;90.25
75681;BME280;64294;49.176;16.626;2022-10-16T04:09:20;99642.59;;;11.90;90.36
75681;BME280;64294;49.176;16.626;2022-10-16T04:11:46;99639.16;;;11.97;89.45
75681;BME280;64294;49.176;16.626;2022-10-16T04:14:11;99639.16;;;11.97;89.37
75681;BME280;64294;49.176;16.626;2022-10-16T04:16:36;99633.00;;;11.98;89.12
75681;BME280;64294;49.176;16.626;2022-10-16T04:19:02;99633.31;;;12.08;88.33
75681;BME280;64294;49.176;16.626;2022-10-16T04:21:27;99634.63;;;12.07;88.48
75681;BME280;64294;49.176;16.626;2022-10-16T04:23:52;99633.56;;;12.10;88.33
75681;BME280;64294;49.176;16.626;2022-10-16T04:26:18;99640.06;;;12.18;88.55
75681;BME280;64294;49.176;16.626;2022-10-16T04:28:43;99642.31;;;12.20;88.32
75681;BME280;64294;49.176;16.626;2022-10-16T04:31:08;99632.25;;;12.24;88.15
75681;BME280;64294;49.176;16.626;2022-10-16T04:33:34;99635.94;;;12.19;88.47
75681;BME280;64294;49.176;16.626;2022-10-16T04:36:00;99642.88;;;12.18;88.50
75681;BME280;64294;49.176;16.626;2022-10-16T04:38:26;99638.97;;;12.21;88.55
75681;BME280;64294;49.176;16.626;2022-10-16T04:40:52;99647.66;;;12.10;89.06
75681;BME280;64294;49.176;16.626;2022-10-16T04:43:18;99650.47;;;12.10;89.43
75681;BME280;64294;49.176;16.626;2022-10-16T04:45:43;99636.03;;;12.00;89.55
75681;BME280;64294;49.176;16.626;2022-10-16T04:48:09;99640.91;;;12.00;89.59
75681;BME280;64294;49.176;16.626;2022-10-16T04:50:34;99641.25;;;12.09;89.41
75681;BME280;64294;49.176;16.626;2022-10-16T04:53:00;99659.88;;;12.12;89.14
75681;BME280;64294;49.176;16.626;2022-10-16T04:55:25;99655.41;;;12.04;89.69
75681;BME280;64294;49.176;16.626;2022-10-16T04:57:50;99666.28;;;12.13;89.63
75681;BME280;64294;49.176;16.626;2022-10-16T05:00:16;99667.88;;;12.08;89.68
75681;BME280;64294;49.176;16.626;2022-10-16T05:02:41;99673.63;;;12.03;89.83
75681;BME280;64294;49.176;16.626;2022-10-16T05:05:07;99667.00;;;12.00;90.27
75681;BME280;64294;49.176;16.626;2022-10-16T05:07:32;99673.19;;;11.99;90.18
75681;BME280;64294;49.176;16.626;2022-10-16T05:09:57;99663.44;;;12.00;90.63
75681;BME280;64294;49.176;16.626;2022-10-16T05:12:23;99671.88;;;12.00;90.72
75681;BME280;64294;49.176;16.626;2022-10-16T05:14:48;99670.59;;;12.01;90.53
75681;BME280;64294;49.176;16.626;2022-10-16T05:17:13;99675.78;;;11.97;90.88
75681;BME280;64294;49.176;16.626;2022-10-16T05:19:39;99672.44;;;11.98;90.65
75681;BME280;64294;49.176;16.626;2022-10-16T05:22:04;99672.66;;;12.00;90.76
75681;BME280;64294;49.176;16.626;2022-10-16T05:24:30;99683.16;;;12.00;90.65
75681;BME280;64294;49.176;16.626;2022-10-16T05:26:55;99679.25;;;12.03;90.68
75681;BME280;64294;49.176;16.626;2022-10-16T05:29:21;99682.06;;;12.03;90.78
75681;BME280;64294;49.176;16.626;2022-10-16T05:31:46;99684.56;;;12.06;90.79
75681;BME280;64294;49.176;16.626;2022-10-16T05:34:14;99688.38;;;12.09;90.29
75681;BME280;64294;49.176;16.626;2022-10-16T05:36:39;99683.25;;;12.07;90.23
75681;BME280;64294;49.176;16.626;2022-10-16T05:39:05;99682.75;;;12.09;90.26
75681;BME280;64294;49.176;16.626;2022-10-16T05:41:30;99682.84;;;12.03;90.28
75681;BME280;64294;49.176;16.626;2022-10-16T05:43:56;99687.31;;;12.12;89.84
75681;BME280;64294;49.176;16.626;2022-10-16T05:46:22;99675.28;;;12.11;90.41
75681;BME280;64294;49.176;16.626;2022-10-16T05:48:47;99687.16;;;12.04;90.58
75681;BME280;64294;49.176;16.626;2022-10-16T05:51:13;99686.41;;;12.04;90.39
75681;BME280;64294;49.176;16.626;2022-10-16T05:53:40;99684.34;;;12.04;90.49
75681;BME280;64294;49.176;16.626;2022-10-16T05:56:07;99686.31;;;12.09;90.38
75681;BME280;64294;49.176;16.626;2022-10-16T05:58:35;99694.25;;;12.11;89.95
75681;BME280;64294;49.176;16.626;2022-10-16T06:01:10;99707.78;;;12.12;89.96
75681;BME280;64294;49.176;16.626;2022-10-16T06:03:36;99710.72;;;12.20;89.87
75681;BME280;64294;49.176;16.626;2022-10-16T06:06:12;99708.34;;;12.37;89.37
75681;BME280;64294;49.176;16.626;2022-10-16T06:08:39;99717.69;;;12.59;88.41
75681;BME280;64294;49.176;16.626;2022-10-16T06:11:09;99715.94;;;12.82;87.49
75681;BME280;64294;49.176;16.626;2022-10-16T06:13:35;99724.28;;;13.01;86.93
75681;BME280;64294;49.176;16.626;2022-10-16T06:16:01;99722.19;;;13.15;86.55
75681;BME280;64294;49.176;16.626;2022-10-16T06:18:28;99708.09;;;13.28;85.85
75681;BME280;64294;49.176;16.626;2022-10-16T06:20:54;99721.97;;;13.39;85.14
75681;BME280;64294;49.176;16.626;2022-10-16T06:23:20;99728.66;;;13.49;84.29
75681;BME280;64294;49.176;16.626;2022-10-16T06:25:45;99722.31;;;13.56;84.05
75681;BME280;64294;49.176;16.626;2022-10-16T06:28:11;99735.38;;;13.80;82.71
75681;BME280;64294;49.176;16.626;2022-10-16T06:30:36;99736.75;;;13.87;82.86
75681;BME280;64294;49.176;16.626;2022-10-16T06:33:01;99733.16;;;14.07;82.16
75681;BME280;64294;49.176;16.626;2022-10-16T06:35:27;99743.56;;;14.12;81.57
75681;BME280;64294;49.176;16.626;2022-10-16T06:37:54;99744.28;;;14.05;81.62
75681;BME280;64294;49.176;16.626;2022-10-16T06:40:20;99750.81;;;14.00;81.54
75681;BME280;64294;49.176;16.626;2022-10-16T06:42:45;99743.09;;;14.21;81.07
75681;BME280;64294;49.176;16.626;2022-10-16T06:45:10;99754.59;;;14.23;81.37
75681;BME280;64294;49.176;16.626;2022-10-16T06:47:36;99756.53;;;14.29;80.96
75681;BME280;64294;49.176;16.626;2022-10-16T06:50:02;99751.31;;;14.33;79.26
75681;BME280;64294;49.176;16.626;2022-10-16T06:52:28;99749.19;;;15.11;76.41
75681;BME280;64294;49.176;16.626;2022-10-16T06:54:54;99755.19;;;15.43;74.69
75681;BME280;64294;49.176;16.626;2022-10-16T06:57:19;99757.41;;;15.96;72.89
75681;BME280;64294;49.176;16.626;2022-10-16T06:59:44;99755.19;;;16.18;71.27
75681;BME280;64294;49.176;16.626;2022-10-16T07:02:09;99757.44;;;16.27;71.44
75681;BME280;64294;49.176;16.626;2022-10-16T07:04:36;99757.44;;;16.19;71.36
75681;BME280;64294;49.176;16.626;2022-10-16T07:07:01;99762.50;;;15.83;72.29
75681;BME280;64294;49.176;16.626;2022-10-16T07:09:27;99761.31;;;15.63;72.86
75681;BME280;64294;49.176;16.626;2022-10-16T07:11:52;99768.97;;;16.59;70.36
75681;BME280;64294;49.176;16.626;2022-10-16T07:14:19;99771.34;;;17.09;68.12
75681;BME280;64294;49.176;16.626;2022-10-16T07:16:46;99767.22;;;19.51;60.96
75681;BME280;64294;49.176;16.626;2022-10-16T07:19:12;99759.28;;;21.15;54.23
75681;BME280;64294;49.176;16.626;2022-10-16T07:21:40;99774.81;;;22.21;48.88
75681;BME280;64294;49.176;16.626;2022-10-16T07:24:10;99761.22;;;23.59;46.42
75681;BME280;64294;49.176;16.626;2022-10-16T07:26:36;99762.56;;;25.84;41.10
75681;BME280;64294;49.176;16.626;2022-10-16T07:29:02;99757.13;;;26.84;38.54
75681;BME280;64294;49.176;16.626;2022-10-16T07:31:28;99775.34;;;28.52;35.12
75681;BME280;64294;49.176;16.626;2022-10-16T07:33:54;99781.69;;;27.42;35.90
75681;BME280;64294;49.176;16.626;2022-10-16T07:36:20;99773.28;;;28.08;34.66
75681;BME280;64294;49.176;16.626;2022-10-16T07:38:46;99768.97;;;29.39;32.04
75681;BME280;64294;49.176;16.626;2022-10-16T07:41:16;99769.72;;;28.72;32.49
75681;BME280;64294;49.176;16.626;2022-10-16T07:43:49;99777.59;;;28.38;33.48
75681;BME280;64294;49.176;16.626;2022-10-16T07:46:15;99791.25;;;27.61;33.67
75681;BME280;64294;49.176;16.626;2022-10-16T07:48:41;99785.25;;;27.27;34.79
75681;BME280;64294;49.176;16.626;2022-10-16T07:51:11;99799.66;;;24.92;39.21
75681;BME280;64294;49.176;16.626;2022-10-16T07:53:36;99800.63;;;23.59;42.08
75681;BME280;64294;49.176;16.626;2022-10-16T07:56:04;99790.34;;;22.08;45.62
75681;BME280;64294;49.176;16.626;2022-10-16T07:58:30;99784.22;;;21.83;46.94
75681;BME280;64294;49.176;16.626;2022-10-16T08:00:56;99797.03;;;21.72;47.58
75681;BME280;64294;49.176;16.626;2022-10-16T08:03:22;99800.69;;;20.49;50.62
75681;BME280;64294;49.176;16.626;2022-10-16T08:05:47;99806.69;;;20.16;52.19
75681;BME280;64294;49.176;16.626;2022-10-16T08:08:14;99809.56;;;21.67;48.20
75681;BME280;64294;49.176;16.626;2022-10-16T08:10:40;99815.09;;;22.44;46.77
75681;BME280;64294;49.176;16.626;2022-10-16T08:13:05;99827.44;;;21.19;51.08
75681;BME280;64294;49.176;16.626;2022-10-16T08:15:30;99829.13;;;19.76;54.10
75681;BME280;64294;49.176;16.626;2022-10-16T08:18:00;99833.34;;;18.81;56.54
75681;BME280;64294;49.176;16.626;2022-10-16T08:20:27;99832.22;;;18.51;59.32
75681;BME280;64294;49.176;16.626;2022-10-16T08:22:53;99842.13;;;18.75;57.87
75681;BME280;64294;49.176;16.626;2022-10-16T08:25:19;99836.66;;;18.44;58.74
75681;BME280;64294;49.176;16.626;2022-10-16T08:27:45;99830.84;;;18.60;58.65
75681;BME280;64294;49.176;16.626;2022-10-16T08:30:11;99831.53;;;19.10;57.27
75681;BME280;64294;49.176;16.626;2022-10-16T08:32:36;99835.16;;;20.70;52.58
75681;BME280;64294;49.176;16.626;2022-10-16T08:35:02;99835.34;;;22.99;47.10
75681;BME280;64294;49.176;16.626;2022-10-16T08:37:31;99829.00;;;23.43;45.95
75681;BME280;64294;49.176;16.626;2022-10-16T08:39:57;99829.13;;;26.30;37.98
75681;BME280;64294;49.176;16.626;2022-10-16T08:42:45;99825.88;;;26.49;37.86
75681;BME280;64294;49.176;16.626;2022-10-16T08:45:30;99809.16;;;27.43;35.46
75681;BME280;64294;49.176;16.626;2022-10-16T08:48:08;99813.19;;;28.90;33.30
75681;BME280;64294;49.176;16.626;2022-10-16T08:50:38;99824.41;;;29.49;32.51
75681;BME280;64294;49.176;16.626;2022-10-16T08:53:05;99817.25;;;28.51;33.10
75681;BME280;64294;49.176;16.626;2022-10-16T08:55:37;99813.78;;;27.78;34.45
75681;BME280;64294;49.176;16.626;2022-10-16T08:58:15;99818.25;;;27.81;33.99
75681;BME280;64294;49.176;16.626;2022-10-16T09:00:42;99818.06;;;28.38;33.56
75681;BME280;64294;49.176;16.626;2022-10-16T09:06:23;99820.31;;;27.35;35.25
75681;BME280;64294;49.176;16.626;2022-10-16T09:11:17;99822.19;;;24.61;41.31
75681;BME280;64294;49.176;16.626;2022-10-16T09:14:11;99840.94;;;25.83;38.76
75681;BME280;64294;49.176;16.626;2022-10-16T09:16:58;99834.16;;;25.16;40.48
75681;BME280;64294;49.176;16.626;2022-10-16T09:19:51;99840.25;;;23.50;43.34
75681;BME280;64294;49.176;16.626;2022-10-16T09:22:17;99849.63;;;23.30;44.54
75681;BME280;64294;49.176;16.626;2022-10-16T09:24:43;99830.38;;;22.27;47.15
75681;BME280;64294;49.176;16.626;2022-10-16T09:27:13;99830.69;;;22.22;47.30
75681;BME280;64294;49.176;16.626;2022-10-16T09:29:39;99840.72;;;23.47;44.61
75681;BME280;64294;49.176;16.626;2022-10-16T09:32:12;99834.50;;;23.50;44.44
75681;BME280;64294;49.176;16.626;2022-10-16T09:34:43;99845.28;;;22.66;45.97
75681;BME280;64294;49.176;16.626;2022-10-16T09:37:12;99842.06;;;21.52;49.20
75681;BME280;64294;49.176;16.626;2022-10-16T09:40:05;99844.50;;;20.80;52.22
75681;BME280;64294;49.176;16.626;2022-10-16T09:42:32;99843.63;;;20.14;53.43
75681;BME280;64294;49.176;16.626;2022-10-16T09:44:59;99842.16;;;19.96;53.83
75681;BME280;64294;49.176;16.626;2022-10-16T09:47:26;99855.28;;;19.64;55.04
75681;BME280;64294;49.176;16.626;2022-10-16T09:50:01;99855.09;;;19.45;55.55
75681;BME280;64294;49.176;16.626;2022-10-16T09:52:30;99852.84;;;19.26;56.84
75681;BME280;64294;49.176;16.626;2022-10-16T09:54:58;99855.94;;;19.38;56.17
75681;BME280;64294;49.176;16.626;2022-10-16T09:57:24;99864.22;;;19.09;57.34
75681;BME280;64294;49.176;16.626;2022-10-16T09:59:55;99855.19;;;19.38;57.33
75681;BME280;64294;49.176;16.626;2022-10-16T10:04:53;99855.53;;;19.76;55.58
75681;BME280;64294;49.176;16.626;2022-10-16T10:07:32;99839.97;;;22.42;49.26
75681;BME280;64294;49.176;16.626;2022-10-16T10:09:59;99845.03;;;23.91;44.30
75681;BME280;64294;49.176;16.626;2022-10-16T10:12:33;99838.09;;;26.61;38.82
75681;BME280;64294;49.176;16.626;2022-10-16T10:15:11;99847.34;;;27.28;37.46
75681;BME280;64294;49.176;16.626;2022-10-16T10:17:54;99846.00;;;27.15;37.28
75681;BME280;64294;49.176;16.626;2022-10-16T10:20:27;99845.59;;;29.71;33.76
75681;BME280;64294;49.176;16.626;2022-10-16T10:22:54;99844.28;;;28.89;34.01
75681;BME280;64294;49.176;16.626;2022-10-16T10:25:36;99850.84;;;29.57;33.11
75681;BME280;64294;49.176;16.626;2022-10-16T10:36:29;99839.78;;;30.82;31.31
75681;BME280;64294;49.176;16.626;2022-10-16T10:39:19;99839.13;;;32.35;28.23
75681;BME280;64294;49.176;16.626;2022-10-16T10:44:41;99827.72;;;30.50;31.01
75681;BME280;64294;49.176;16.626;2022-10-16T10:47:32;99832.22;;;30.93;30.58
75681;BME280;64294;49.176;16.626;2022-10-16T10:55:15;99838.78;;;30.73;30.33
75681;BME280;64294;49.176;16.626;2022-10-16T11:00:21;99832.09;;;30.69;30.42
75681;BME280;64294;49.176;16.626;2022-10-16T11:05:40;99826.28;;;31.96;28.78
75681;BME280;64294;49.176;16.626;2022-10-16T11:08:17;99828.47;;;31.74;29.20
75681;BME280;64294;49.176;16.626;2022-10-16T11:10:54;99823.84;;;30.43;31.02
75681;BME280;64294;49.176;16.626;2022-10-16T11:14:24;99826.84;;;28.40;35.11
75681;BME280;64294;49.176;16.626;2022-10-16T11:16:37;99829.59;;;28.85;34.37
75681;BME280;64294;49.176;16.626;2022-10-16T11:19:37;99831.44;;;30.53;30.85
75681;BME280;64294;49.176;16.626;2022-10-16T11:22:13;99827.72;;;27.11;36.87
75681;BME280;64294;49.176;16.626;2022-10-16T11:27:15;99828.31;;;28.25;35.51
75681;BME280;64294;49.176;16.626;2022-10-16T11:29:49;99826.56;;;29.66;32.67
75681;BME280;64294;49.176;16.626;2022-10-16T11:32:28;99829.41;;;29.31;33.06
75681;BME280;64294;49.176;16.626;2022-10-16T11:35:07;99819.78;;;30.13;31.74
75681;BME280;64294;49.176;16.626;2022-10-16T11:37:41;99815.06;;;32.32;28.55
75681;BME280;64294;49.176;16.626;2022-10-16T11:40:22;99815.38;;;31.73;29.29
75681;BME280;64294;49.176;16.626;2022-10-16T11:42:55;99815.56;;;31.35;29.79
75681;BME280;64294;49.176;16.626;2022-10-16T11:50:48;99800.28;;;27.83;35.14
75681;BME280;64294;49.176;16.626;2022-10-16T11:55:52;99785.63;;;26.51;38.64
75681;BME280;64294;49.176;16.626;2022-10-16T11:58:34;99799.13;;;25.19;41.28
75681;BME280;64294;49.176;16.626;2022-10-16T12:01:37;99790.75;;;26.39;39.26
75681;BME280;64294;49.176;16.626;2022-10-16T12:04:22;99787.31;;;25.89;39.45
75681;BME280;64294;49.176;16.626;2022-10-16T12:07:01;99780.34;;;26.20;39.17
75681;BME280;64294;49.176;16.626;2022-10-16T12:09:30;99793.50;;;27.62;37.36
75681;BME280;64294;49.176;16.626;2022-10-16T12:11:56;99790.13;;;27.09;37.57
75681;BME280;64294;49.176;16.626;2022-10-16T12:14:36;99796.00;;;26.56;38.33
75681;BME280;64294;49.176;16.626;2022-10-16T12:17:21;99800.63;;;25.09;41.14
75681;BME280;64294;49.176;16.626;2022-10-16T12:19:58;99794.91;;;26.77;37.80
75681;BME280;64294;49.176;16.626;2022-10-16T12:22:28;99811.16;;;26.70;39.01
75681;BME280;64294;49.176;16.626;2022-10-16T12:24:54;99804.97;;;27.17;38.03
75681;BME280;64294;49.176;16.626;2022-10-16T12:27:30;99802.78;;;27.31;37.45
75681;BME280;64294;49.176;16.626;2022-10-16T12:29:59;99812.44;;;26.14;39.08
75681;BME280;64294;49.176;16.626;2022-10-16T12:32:32;99810.44;;;26.17;40.11
75681;BME280;64294;49.176;16.626;2022-10-16T12:34:59;99803.16;;;25.77;41.55
75681;BME280;64294;49.176;16.626;2022-10-16T12:37:28;99818.03;;;25.11;41.55
75681;BME280;64294;49.176;16.626;2022-10-16T12:39:56;99813.88;;;24.08;43.93
75681;BME280;64294;49.176;16.626;2022-10-16T12:42:32;99809.53;;;23.74;44.79
75681;BME280;64294;49.176;16.626;2022-10-16T12:44:59;99807.66;;;24.94;42.51
75681;BME280;64294;49.176;16.626;2022-10-16T12:49:57;99801.81;;;24.92;41.76
75681;BME280;64294;49.176;16.626;2022-10-16T12:52:28;99810.28;;;23.20;45.68
75681;BME280;64294;49.176;16.626;2022-10-16T12:55:00;99810.44;;;22.39;46.92
75681;BME280;64294;49.176;16.626;2022-10-16T13:00:28;99809.00;;;22.90;47.14
75681;BME280;64294;49.176;16.626;2022-10-16T13:11:20;99823.44;;;23.35;45.50
75681;BME280;64294;49.176;16.626;2022-10-16T13:19:28;99822.22;;;24.04;43.35
75681;BME280;64294;49.176;16.626;2022-10-16T13:24:58;99821.13;;;23.43;44.80
75681;BME280;64294;49.176;16.626;2022-10-16T13:30:17;99823.44;;;22.61;46.76
75681;BME280;64294;49.176;16.626;2022-10-16T13:32:48;99829.19;;;22.21;48.28
75681;BME280;64294;49.176;16.626;2022-10-16T13:35:29;99819.75;;;21.99;48.75
75681;BME280;64294;49.176;16.626;2022-10-16T13:38:20;99822.59;;;22.09;48.66
75681;BME280;64294;49.176;16.626;2022-10-16T13:40:55;99833.28;;;22.08;49.29
75681;BME280;64294;49.176;16.626;2022-10-16T13:48:36;99838.75;;;21.75;49.44
75681;BME280;64294;49.176;16.626;2022-10-16T13:51:16;99841.34;;;22.31;48.62
75681;BME280;64294;49.176;16.626;2022-10-16T13:53:43;99839.13;;;22.60;48.09
75681;BME280;64294;49.176;16.626;2022-10-16T13:56:14;99847.09;;;22.72;48.33
75681;BME280;64294;49.176;16.626;2022-10-16T13:58:41;99841.53;;;22.64;48.29
75681;BME280;64294;49.176;16.626;2022-10-16T14:01:25;99850.34;;;22.78;48.27
75681;BME280;64294;49.176;16.626;2022-10-16T14:03:52;99849.94;;;23.03;47.73
75681;BME280;64294;49.176;16.626;2022-10-16T14:06:21;99842.25;;;22.74;48.42
75681;BME280;64294;49.176;16.626;2022-10-16T14:09:08;99850.56;;;22.29;48.94
75681;BME280;64294;49.176;16.626;2022-10-16T14:11:48;99846.25;;;21.99;49.43
75681;BME280;64294;49.176;16.626;2022-10-16T14:14:16;99850.06;;;21.63;50.25
75681;BME280;64294;49.176;16.626;2022-10-16T14:16:43;99852.75;;;21.52;50.55
75681;BME280;64294;49.176;16.626;2022-10-16T14:19:26;99864.22;;;21.42;50.83
75681;BME280;64294;49.176;16.626;2022-10-16T14:21:53;99866.59;;;21.36;51.46
75681;BME280;64294;49.176;16.626;2022-10-16T14:26:56;99867.81;;;21.71;50.76